Terminal Aerodrome Forecast
Issued by NWS

Home | Current Version | Previous Version | Text Only | Print | Product List | Glossary On
Versions: 1 2 3 4 5 6 7 8 9 10 11 12 13 14 15 16 17 18 19
000
FTUS46 KEKA 251720
TAFCEC
TAF
KCEC 251720Z 2518/2618 VRB03KT 1SM BR OVC002
     FM251900 20007KT 3SM BR BKN002
      TEMPO 2520/2524 P6SM NSW SCT003
     FM260000 16006KT 1 1/2SM BR BKN002
     FM260600 VRB03KT 1/2SM FG VV002
     FM261700 VRB03KT 1SM BR BKN002=

USA.gov is the U.S. government's official web portal to all federal, state and local government web resources and services.